Time;durP1;ratioP1;P1;durP2;ratioP2;P2;SDS_P1;SDS_P2;PMS_P1;PMS_P2;Temp;Humidity;BMP_temperature;BMP_pressure;BME280_temperature;BME280_humidity;BME280_pressure;Samples;Min_cycle;Max_cycle;Signal;HPM_P1;HPM_P2
2022/09/17 00:00:35;;;;;;;58.13;2.70;;;;;;;;;;5071081;28;20447;-66
2022/09/17 00:03:04;;;;;;;58.27;2.70;;;;;;;;;;5070929;28;20999;-66
2022/09/17 00:05:31;;;;;;;58.07;2.47;;;;;;;;;;5071212;28;20797;-66
2022/09/17 00:07:58;;;;;;;58.20;2.60;;;;;;;;;;5071102;28;20455;-66
2022/09/17 00:10:25;;;;;;;58.03;2.60;;;;;;;;;;5070825;28;20940;-66
2022/09/17 00:12:52;;;;;;;58.20;2.70;;;;;;;;;;5068966;28;20443;-66
2022/09/17 00:15:19;;;;;;;58.33;2.83;;;;;;;;;;5071071;28;20475;-66
2022/09/17 00:17:46;;;;;;;58.17;2.57;;;;;;;;;;5070670;28;20457;-66
2022/09/17 00:20:15;;;;;;;58.27;2.57;;;;;;;;;;5071004;28;20448;-66
2022/09/17 00:22:43;;;;;;;57.97;2.50;;;;;;;;;;5065837;28;20523;-66
2022/09/17 00:25:10;;;;;;;58.27;2.70;;;;;;;;;;5050861;28;20463;-66
2022/09/17 00:27:37;;;;;;;58.03;2.70;;;;;;;;;;5051047;28;20475;-66
2022/09/17 00:30:04;;;;;;;58.37;2.80;;;;;;;;;;5053464;28;20447;-66
2022/09/17 00:32:31;;;;;;;58.13;2.77;;;;;;;;;;5054862;28;20456;-66
2022/09/17 00:34:58;;;;;;;58.37;2.70;;;;;;;;;;5054552;28;20492;-66
2022/09/17 00:37:27;;;;;;;58.43;2.97;;;;;;;;;;5054753;28;20448;-66
2022/09/17 00:39:54;;;;;;;58.03;2.70;;;;;;;;;;5054132;28;20452;-66
2022/09/17 00:42:22;;;;;;;58.37;2.70;;;;;;;;;;5055054;28;20812;-66
2022/09/17 00:44:51;;;;;;;58.40;2.90;;;;;;;;;;5055620;28;20476;-66
2022/09/17 00:47:21;;;;;;;58.20;2.97;;;;;;;;;;5074508;28;20455;-66
2022/09/17 00:49:49;;;;;;;58.27;2.90;;;;;;;;;;5074084;28;20454;-66
2022/09/17 00:52:20;;;;;;;58.17;2.60;;;;;;;;;;5074247;28;20946;-66
2022/09/17 00:54:52;;;;;;;58.10;2.77;;;;;;;;;;5074230;28;20645;-67
2022/09/17 00:57:19;;;;;;;58.33;2.60;;;;;;;;;;5073847;28;20447;-66
2022/09/17 00:59:46;;;;;;;58.03;2.60;;;;;;;;;;5073624;28;20508;-66
2022/09/17 01:02:14;;;;;;;58.40;2.73;;;;;;;;;;5074085;28;20455;-67
2022/09/17 01:04:41;;;;;;;58.20;2.80;;;;;;;;;;5074114;28;20467;-67
2022/09/17 01:07:11;;;;;;;58.10;2.57;;;;;;;;;;5074019;28;20466;-66
2022/09/17 01:09:44;;;;;;;57.97;2.60;;;;;;;;;;5073497;28;20935;-66
2022/09/17 01:12:18;;;;;;;58.30;2.90;;;;;;;;;;5074131;28;20831;-66
2022/09/17 01:15:00;;;;;;;57.87;2.70;;;;;;;;;;5074137;28;20478;-67
2022/09/17 01:17:30;;;;;;;58.77;2.70;;;;;;;;;;5071685;28;20452;-66
2022/09/17 01:20:16;;;;;;;58.13;2.47;;;;;;;;;;5073549;28;20459;-66
2022/09/17 01:22:46;;;;;;;58.00;2.53;;;;;;;;;;5074187;28;20475;-66
2022/09/17 01:25:21;;;;;;;58.27;2.70;;;;;;;;;;5073884;28;20466;-66
2022/09/17 01:28:01;;;;;;;59.20;2.70;;;;;;;;;;5073558;28;20542;-66
2022/09/17 01:30:45;;;;;;;59.73;3.23;;;;;;;;;;5073405;28;20849;-66
2022/09/17 01:33:16;;;;;;;58.23;2.60;;;;;;;;;;5073453;28;20431;-66
2022/09/17 01:35:48;;;;;;;58.70;2.77;;;;;;;;;;5073635;28;20812;-66
2022/09/17 01:38:19;;;;;;;58.07;2.70;;;;;;;;;;5073390;28;20452;-66
2022/09/17 01:40:50;;;;;;;59.10;3.10;;;;;;;;;;5072941;28;20501;-66
2022/09/17 01:43:22;;;;;;;58.40;2.90;;;;;;;;;;5073353;28;20490;-66
2022/09/17 01:45:52;;;;;;;58.27;2.53;;;;;;;;;;5073421;28;20944;-66
2022/09/17 01:48:20;;;;;;;58.50;2.90;;;;;;;;;;5069253;28;20455;-66
2022/09/17 01:50:49;;;;;;;58.30;2.63;;;;;;;;;;5072805;28;20451;-66
2022/09/17 01:53:18;;;;;;;58.37;2.90;;;;;;;;;;5073141;28;20451;-66
2022/09/17 01:55:47;;;;;;;58.37;2.60;;;;;;;;;;5073179;28;20458;-66
2022/09/17 01:58:16;;;;;;;58.23;2.63;;;;;;;;;;5072721;28;20485;-66
2022/09/17 02:00:48;;;;;;;58.20;2.57;;;;;;;;;;5072978;28;20447;-66
2022/09/17 02:03:19;;;;;;;58.37;2.80;;;;;;;;;;5072751;28;20511;-66
2022/09/17 02:05:49;;;;;;;58.37;2.83;;;;;;;;;;5073223;28;20478;-66
2022/09/17 02:08:18;;;;;;;58.17;2.67;;;;;;;;;;5072843;28;20462;-66
2022/09/17 02:10:46;;;;;;;58.27;2.83;;;;;;;;;;5072535;28;20459;-66
2022/09/17 02:13:15;;;;;;;58.30;2.90;;;;;;;;;;5072660;28;20451;-66
2022/09/17 02:15:44;;;;;;;58.27;2.70;;;;;;;;;;5072739;28;20455;-66
2022/09/17 02:18:16;;;;;;;58.27;2.60;;;;;;;;;;5072513;28;20451;-67
2022/09/17 02:20:48;;;;;;;59.57;3.07;;;;;;;;;;5070079;28;20546;-66
2022/09/17 02:23:17;;;;;;;58.43;2.50;;;;;;;;;;5072641;28;21005;-67
2022/09/17 02:25:48;;;;;;;58.90;3.10;;;;;;;;;;5072610;28;20451;-66
2022/09/17 02:28:17;;;;;;;58.17;2.70;;;;;;;;;;5072508;28;20455;-66
2022/09/17 02:30:44;;;;;;;58.00;2.57;;;;;;;;;;5072216;28;20478;-67
2022/09/17 02:33:14;;;;;;;58.40;2.87;;;;;;;;;;5072457;28;20450;-66
2022/09/17 02:35:42;;;;;;;58.17;2.60;;;;;;;;;;5072413;28;20969;-66
2022/09/17 02:38:10;;;;;;;58.50;3.00;;;;;;;;;;5072042;28;20460;-66
2022/09/17 02:40:42;;;;;;;58.03;2.70;;;;;;;;;;5072122;28;20795;-66
2022/09/17 02:43:12;;;;;;;58.13;2.70;;;;;;;;;;5072334;28;20475;-66
2022/09/17 02:45:45;;;;;;;60.30;2.70;;;;;;;;;;5072223;28;20958;-66
2022/09/17 02:48:25;;;;;;;58.47;2.83;;;;;;;;;;5072326;28;20446;-66
2022/09/17 02:51:00;;;;;;;57.97;2.50;;;;;;;;;;5071200;28;20508;-66
2022/09/17 02:53:32;;;;;;;58.43;2.73;;;;;;;;;;5069554;28;20475;-66
2022/09/17 02:56:03;;;;;;;58.03;2.73;;;;;;;;;;5072327;28;20443;-66
2022/09/17 02:58:33;;;;;;;58.67;2.90;;;;;;;;;;5071840;28;20849;-66
2022/09/17 03:01:04;;;;;;;59.00;3.30;;;;;;;;;;5072141;28;20873;-66
2022/09/17 03:03:34;;;;;;;59.10;3.37;;;;;;;;;;5071798;28;20497;-66
2022/09/17 03:06:01;;;;;;;58.37;2.93;;;;;;;;;;5071873;28;20469;-66
2022/09/17 03:08:29;;;;;;;58.07;2.50;;;;;;;;;;5071809;28;20447;-66
2022/09/17 03:10:58;;;;;;;58.07;2.70;;;;;;;;;;5071516;28;20505;-66
2022/09/17 03:13:25;;;;;;;58.40;2.83;;;;;;;;;;5071590;28;20979;-66
2022/09/17 03:15:52;;;;;;;58.23;2.70;;;;;;;;;;5072244;28;20451;-66
2022/09/17 03:18:19;;;;;;;59.90;3.33;;;;;;;;;;5071486;28;20454;-66
2022/09/17 03:20:46;;;;;;;58.03;2.50;;;;;;;;;;5071597;28;20450;-66
2022/09/17 03:23:13;;;;;;;58.13;2.70;;;;;;;;;;5071693;28;20458;-66
2022/09/17 03:25:40;;;;;;;58.53;3.10;;;;;;;;;;5069237;28;20451;-66
2022/09/17 03:28:09;;;;;;;58.37;2.60;;;;;;;;;;5071771;28;20451;-66
2022/09/17 03:30:36;;;;;;;58.33;2.63;;;;;;;;;;5071087;28;20453;-66
2022/09/17 03:33:03;;;;;;;58.27;2.43;;;;;;;;;;5071365;28;20830;-66
2022/09/17 03:35:30;;;;;;;58.50;2.73;;;;;;;;;;5071285;28;20566;-66
2022/09/17 03:37:57;;;;;;;58.40;2.83;;;;;;;;;;5071573;28;20439;-66
2022/09/17 03:40:24;;;;;;;58.40;2.80;;;;;;;;;;5071524;28;20452;-66
2022/09/17 03:42:51;;;;;;;58.70;2.77;;;;;;;;;;5071524;28;20447;-66
2022/09/17 03:45:20;;;;;;;58.17;2.60;;;;;;;;;;5071305;28;20494;-66
2022/09/17 03:47:47;;;;;;;58.23;2.80;;;;;;;;;;5071587;28;20454;-66
2022/09/17 03:50:14;;;;;;;58.80;2.90;;;;;;;;;;5070873;28;20543;-66
2022/09/17 03:52:43;;;;;;;58.07;2.80;;;;;;;;;;5071541;28;20474;-66
2022/09/17 03:55:11;;;;;;;58.40;2.90;;;;;;;;;;5071231;28;20477;-66
2022/09/17 03:57:38;;;;;;;58.33;2.77;;;;;;;;;;5068646;28;20483;-66
2022/09/17 04:00:06;;;;;;;58.30;2.60;;;;;;;;;;5070671;28;20448;-66
2022/09/17 04:02:34;;;;;;;58.37;2.83;;;;;;;;;;5072257;28;20443;-66
2022/09/17 04:05:01;;;;;;;58.70;3.33;;;;;;;;;;5075140;28;20486;-66
2022/09/17 04:07:28;;;;;;;58.27;2.70;;;;;;;;;;5075557;28;20450;-66
2022/09/17 04:09:55;;;;;;;58.40;2.70;;;;;;;;;;5074807;28;20454;-66
2022/09/17 04:12:22;;;;;;;58.27;2.37;;;;;;;;;;5074976;28;20455;-66
2022/09/17 04:14:49;;;;;;;58.17;2.43;;;;;;;;;;5074920;28;20847;-66
2022/09/17 04:17:17;;;;;;;58.37;2.93;;;;;;;;;;5075536;28;20447;-66
2022/09/17 04:19:45;;;;;;;58.23;2.87;;;;;;;;;;5074460;28;20866;-66
2022/09/17 04:22:12;;;;;;;58.33;2.70;;;;;;;;;;5074982;28;20455;-66
2022/09/17 04:24:40;;;;;;;58.40;3.10;;;;;;;;;;5075095;28;20483;-66
2022/09/17 04:27:07;;;;;;;58.60;3.00;;;;;;;;;;5074773;28;20447;-66
2022/09/17 04:29:34;;;;;;;58.57;2.90;;;;;;;;;;5073951;28;20451;-66
2022/09/17 04:32:01;;;;;;;59.10;3.77;;;;;;;;;;5074859;28;20451;-66
2022/09/17 04:34:28;;;;;;;58.43;2.90;;;;;;;;;;5074787;28;20517;-66
2022/09/17 04:36:56;;;;;;;58.47;2.77;;;;;;;;;;5075027;28;20538;-66
2022/09/17 04:39:23;;;;;;;58.23;2.80;;;;;;;;;;5074610;28;20473;-66
2022/09/17 04:41:51;;;;;;;58.13;2.53;;;;;;;;;;5074693;28;20455;-66
2022/09/17 04:44:18;;;;;;;58.33;2.67;;;;;;;;;;5074873;28;20494;-66
2022/09/17 04:46:45;;;;;;;58.57;2.90;;;;;;;;;;5074918;28;20447;-66
2022/09/17 04:49:12;;;;;;;58.37;2.77;;;;;;;;;;5074389;28;20462;-66
2022/09/17 04:51:39;;;;;;;58.40;2.67;;;;;;;;;;5074766;28;20828;-66
2022/09/17 04:54:08;;;;;;;58.27;2.80;;;;;;;;;;5074474;28;20459;-66
2022/09/17 04:56:35;;;;;;;58.90;3.90;;;;;;;;;;5074801;28;20447;-67
2022/09/17 04:59:02;;;;;;;58.80;2.90;;;;;;;;;;5074187;28;20451;-66
2022/09/17 05:01:29;;;;;;;58.57;3.10;;;;;;;;;;5074619;28;20470;-66
2022/09/17 05:03:56;;;;;;;58.27;2.80;;;;;;;;;;5074331;28;20497;-66
2022/09/17 05:06:23;;;;;;;58.37;2.60;;;;;;;;;;5074388;28;20454;-66
2022/09/17 05:08:50;;;;;;;58.07;2.40;;;;;;;;;;5073928;28;20948;-66
2022/09/17 05:11:19;;;;;;;58.50;2.90;;;;;;;;;;5074499;28;20443;-66
2022/09/17 05:13:46;;;;;;;59.53;3.60;;;;;;;;;;5074232;28;20862;-66
2022/09/17 05:16:13;;;;;;;58.40;2.60;;;;;;;;;;5073838;28;20447;-67
2022/09/17 05:18:40;;;;;;;58.17;2.70;;;;;;;;;;5073752;28;20443;-67
2022/09/17 05:21:07;;;;;;;58.07;2.70;;;;;;;;;;5074019;28;20453;-66
2022/09/17 05:23:35;;;;;;;58.40;2.63;;;;;;;;;;5074230;28;20467;-66
2022/09/17 05:26:02;;;;;;;58.53;3.00;;;;;;;;;;5073982;28;20550;-66
2022/09/17 05:28:30;;;;;;;58.67;3.20;;;;;;;;;;5073949;28;20455;-66
2022/09/17 05:30:59;;;;;;;58.33;2.90;;;;;;;;;;5073995;28;20455;-66
2022/09/17 05:33:26;;;;;;;58.20;2.57;;;;;;;;;;5073788;28;20995;-66
2022/09/17 05:35:53;;;;;;;59.27;2.90;;;;;;;;;;5073713;28;20462;-66
2022/09/17 05:38:20;;;;;;;58.27;2.67;;;;;;;;;;5073685;28;20458;-66
2022/09/17 05:40:48;;;;;;;58.50;3.20;;;;;;;;;;5073450;28;20943;-66
2022/09/17 05:43:16;;;;;;;58.20;2.70;;;;;;;;;;5073811;28;20513;-66
2022/09/17 05:45:45;;;;;;;58.27;2.70;;;;;;;;;;5073695;28;20501;-66
2022/09/17 05:48:13;;;;;;;58.20;2.67;;;;;;;;;;5073453;28;20447;-66
2022/09/17 05:50:41;;;;;;;58.40;2.70;;;;;;;;;;5073233;28;20444;-66
2022/09/17 05:53:09;;;;;;;58.07;2.60;;;;;;;;;;5073671;28;20866;-66
2022/09/17 05:55:36;;;;;;;58.17;2.80;;;;;;;;;;5073487;28;20455;-66
2022/09/17 05:58:09;;;;;;;58.27;2.70;;;;;;;;;;5073472;28;20455;-67
2022/09/17 06:00:37;;;;;;;58.13;2.27;;;;;;;;;;5073170;28;20527;-66
2022/09/17 06:03:05;;;;;;;58.50;2.90;;;;;;;;;;5073106;28;20447;-66
2022/09/17 06:05:32;;;;;;;57.97;2.70;;;;;;;;;;5073249;28;21011;-66
2022/09/17 06:07:59;;;;;;;58.50;3.07;;;;;;;;;;5073524;28;20456;-66
2022/09/17 06:10:26;;;;;;;58.20;2.83;;;;;;;;;;5073049;28;20466;-66
2022/09/17 06:12:57;;;;;;;58.17;2.93;;;;;;;;;;5073187;28;20443;-66
2022/09/17 06:15:24;;;;;;;58.50;2.87;;;;;;;;;;5072978;28;20545;-66
2022/09/17 06:17:51;;;;;;;58.07;2.87;;;;;;;;;;5073246;28;20448;-66
2022/09/17 06:20:20;;;;;;;58.17;2.60;;;;;;;;;;5072858;28;20488;-66
2022/09/17 06:22:47;;;;;;;59.27;2.90;;;;;;;;;;5073316;28;20450;-66
2022/09/17 06:25:14;;;;;;;58.67;3.13;;;;;;;;;;5072829;28;20589;-67
2022/09/17 06:27:41;;;;;;;59.37;3.80;;;;;;;;;;5071899;28;20939;-66
2022/09/17 06:30:08;;;;;;;58.47;3.40;;;;;;;;;;5072297;28;20458;-66
2022/09/17 06:32:35;;;;;;;59.63;3.70;;;;;;;;;;5072914;28;20447;-66
2022/09/17 06:35:03;;;;;;;58.10;3.07;;;;;;;;;;5072477;28;20479;-66
2022/09/17 06:37:32;;;;;;;58.47;2.80;;;;;;;;;;5072618;28;20455;-66
2022/09/17 06:39:59;;;;;;;58.47;3.10;;;;;;;;;;5072316;28;20447;-66
2022/09/17 06:42:27;;;;;;;58.03;3.00;;;;;;;;;;5072476;28;20454;-66
2022/09/17 06:44:54;;;;;;;59.67;3.17;;;;;;;;;;5072574;28;20509;-66
2022/09/17 06:47:21;;;;;;;59.20;3.00;;;;;;;;;;5072630;28;20454;-66
2022/09/17 06:49:48;;;;;;;58.27;3.00;;;;;;;;;;5072027;28;20453;-66
2022/09/17 06:52:15;;;;;;;58.30;3.10;;;;;;;;;;5072422;28;20452;-66
2022/09/17 06:54:44;;;;;;;58.30;2.93;;;;;;;;;;5072148;28;20471;-66
2022/09/17 06:57:11;;;;;;;58.40;3.10;;;;;;;;;;5072365;28;20453;-66
2022/09/17 06:59:38;;;;;;;58.27;2.60;;;;;;;;;;5071390;28;20485;-66
2022/09/17 07:02:05;;;;;;;58.40;3.00;;;;;;;;;;5072763;28;20447;-66
2022/09/17 07:04:32;;;;;;;58.43;2.80;;;;;;;;;;5071784;28;21074;-66
2022/09/17 07:06:59;;;;;;;57.97;2.40;;;;;;;;;;5072122;28;20451;-66
2022/09/17 07:09:27;;;;;;;58.20;2.77;;;;;;;;;;5066476;28;20451;-67
2022/09/17 07:11:56;;;;;;;58.07;2.60;;;;;;;;;;5069643;28;20475;-67
2022/09/17 07:14:24;;;;;;;58.13;2.80;;;;;;;;;;5069687;28;20472;-67
2022/09/17 07:16:53;;;;;;;57.97;2.50;;;;;;;;;;5069688;28;20501;-67
2022/09/17 07:19:20;;;;;;;58.27;2.70;;;;;;;;;;5069494;28;20449;-67
2022/09/17 07:21:48;;;;;;;58.07;2.70;;;;;;;;;;5070019;28;20460;-66
2022/09/17 07:24:16;;;;;;;57.87;2.70;;;;;;;;;;5070651;28;20493;-67
2022/09/17 07:26:43;;;;;;;60.22;2.80;;;;;;;;;;5071387;28;20953;-66
2022/09/17 07:29:11;;;;;;;58.70;3.27;;;;;;;;;;5068344;28;20701;-67
2022/09/17 07:31:39;;;;;;;58.33;2.60;;;;;;;;;;5051652;28;20462;-67
2022/09/17 07:34:06;;;;;;;58.17;2.67;;;;;;;;;;5051336;28;20479;-66
2022/09/17 07:36:33;;;;;;;58.40;2.93;;;;;;;;;;5051572;28;20833;-67
2022/09/17 07:39:00;;;;;;;58.30;3.07;;;;;;;;;;5050540;28;20444;-67
2022/09/17 07:41:27;;;;;;;58.17;2.60;;;;;;;;;;5051688;28;20452;-66
2022/09/17 07:43:54;;;;;;;59.17;3.27;;;;;;;;;;5051392;28;20468;-66
2022/09/17 07:46:22;;;;;;;58.83;2.93;;;;;;;;;;5051285;28;20483;-67
2022/09/17 07:48:50;;;;;;;58.37;2.80;;;;;;;;;;5050998;28;20978;-66
2022/09/17 07:51:18;;;;;;;58.53;2.90;;;;;;;;;;5050758;28;20456;-67
2022/09/17 07:53:45;;;;;;;58.47;2.93;;;;;;;;;;5051094;28;20564;-67
2022/09/17 07:56:12;;;;;;;58.60;2.83;;;;;;;;;;5051568;28;20455;-67
2022/09/17 07:58:39;;;;;;;59.17;3.60;;;;;;;;;;5050979;28;20448;-67
2022/09/17 08:01:07;;;;;;;58.27;2.60;;;;;;;;;;5066406;28;20451;-68
2022/09/17 08:03:36;;;;;;;58.33;2.87;;;;;;;;;;5071145;28;20537;-67
2022/09/17 08:06:04;;;;;;;58.50;2.70;;;;;;;;;;5070930;28;20502;-67
2022/09/17 08:08:32;;;;;;;58.17;2.80;;;;;;;;;;5070931;28;20443;-66
2022/09/17 08:11:00;;;;;;;58.60;3.20;;;;;;;;;;5071261;28;20490;-67
2022/09/17 08:13:27;;;;;;;58.27;3.17;;;;;;;;;;5071163;28;20467;-67
2022/09/17 08:15:58;;;;;;;58.30;2.70;;;;;;;;;;5070392;28;20453;-68
2022/09/17 08:18:25;;;;;;;58.40;2.90;;;;;;;;;;5070796;28;20443;-68
2022/09/17 08:20:57;;;;;;;58.93;2.80;;;;;;;;;;5071039;28;20860;-67
2022/09/17 08:23:24;;;;;;;58.70;2.50;;;;;;;;;;5071050;28;20528;-67
2022/09/17 08:25:52;;;;;;;58.40;2.70;;;;;;;;;;5070998;28;20484;-68
2022/09/17 08:28:19;;;;;;;60.80;2.93;;;;;;;;;;5070939;28;20447;-67
2022/09/17 08:30:48;;;;;;;58.07;2.80;;;;;;;;;;5068601;28;21121;-67
2022/09/17 08:33:16;;;;;;;58.37;2.83;;;;;;;;;;5070917;28;20481;-67
2022/09/17 08:35:43;;;;;;;57.97;2.80;;;;;;;;;;5071010;28;20447;-67
2022/09/17 08:38:11;;;;;;;58.50;2.80;;;;;;;;;;5071200;28;20455;-66
2022/09/17 08:40:43;;;;;;;58.50;3.20;;;;;;;;;;5070227;28;20960;-67
2022/09/17 08:43:14;;;;;;;59.10;3.30;;;;;;;;;;5070823;28;20886;-67
2022/09/17 08:45:42;;;;;;;58.53;3.10;;;;;;;;;;5070728;28;20487;-68
2022/09/17 08:48:12;;;;;;;59.43;3.43;;;;;;;;;;5070851;28;20450;-66
2022/09/17 08:50:41;;;;;;;59.63;4.23;;;;;;;;;;5073007;28;20451;-66
2022/09/17 08:53:20;;;;;;;58.30;2.70;;;;;;;;;;5074313;28;20936;-68
2022/09/17 08:55:50;;;;;;;58.57;3.03;;;;;;;;;;5074298;28;20462;-67
2022/09/17 08:58:28;;;;;;;58.37;3.10;;;;;;;;;;5074455;28;20459;-67
2022/09/17 09:00:58;;;;;;;58.30;2.90;;;;;;;;;;5074333;28;20452;-67
2022/09/17 09:03:31;;;;;;;57.80;2.70;;;;;;;;;;5072065;28;20473;-67
2022/09/17 09:05:59;;;;;;;58.20;2.70;;;;;;;;;;5073875;28;20494;-67
2022/09/17 09:08:31;;;;;;;57.90;2.83;;;;;;;;;;5073902;28;20453;-67
2022/09/17 09:10:59;;;;;;;57.97;2.47;;;;;;;;;;5074170;28;20460;-67
2022/09/17 09:13:29;;;;;;;58.30;2.73;;;;;;;;;;5074191;28;20485;-67
2022/09/17 09:15:59;;;;;;;58.10;2.60;;;;;;;;;;5074077;28;20942;-67
2022/09/17 09:18:29;;;;;;;58.37;2.90;;;;;;;;;;5073971;28;20447;-67
2022/09/17 09:21:02;;;;;;;57.97;2.60;;;;;;;;;;5073460;28;20449;-67
2022/09/17 09:23:34;;;;;;;58.17;2.80;;;;;;;;;;5073859;28;20480;-67
2022/09/17 09:26:07;;;;;;;59.33;3.40;;;;;;;;;;5073786;28;20483;-67
2022/09/17 09:28:42;;;;;;;58.10;2.70;;;;;;;;;;5073475;28;20513;-67
2022/09/17 09:31:15;;;;;;;58.47;2.90;;;;;;;;;;5073608;28;20453;-67
2022/09/17 09:33:44;;;;;;;58.70;2.90;;;;;;;;;;5071915;28;20625;-67
2022/09/17 09:36:13;;;;;;;57.97;2.53;;;;;;;;;;5073927;28;20447;-67
2022/09/17 09:38:44;;;;;;;61.17;3.00;;;;;;;;;;5073230;28;20444;-67
2022/09/17 09:41:13;;;;;;;58.03;2.60;;;;;;;;;;5066394;28;20450;-68
2022/09/17 09:43:41;;;;;;;58.00;2.50;;;;;;;;;;5053222;28;20468;-67
2022/09/17 09:46:14;;;;;;;58.10;2.80;;;;;;;;;;5053501;28;20545;-67
2022/09/17 09:48:45;;;;;;;58.73;3.07;;;;;;;;;;5053169;28;20804;-68
2022/09/17 09:51:18;;;;;;;57.77;2.60;;;;;;;;;;5053337;28;20535;-67
2022/09/17 09:53:53;;;;;;;57.97;2.50;;;;;;;;;;5053340;28;20832;-68
2022/09/17 09:56:38;;;;;;;57.47;2.40;;;;;;;;;;5053054;28;20440;-68
2022/09/17 09:59:08;;;;;;;62.07;3.20;;;;;;;;;;5052857;28;20449;-68
2022/09/17 10:01:39;;;;;;;65.27;3.33;;;;;;;;;;5052915;28;20446;-67
2022/09/17 10:04:15;;;;;;;58.20;2.73;;;;;;;;;;5053065;28;20467;-66
2022/09/17 10:06:42;;;;;;;59.80;2.70;;;;;;;;;;5053117;28;20505;-68
2022/09/17 10:09:12;;;;;;;59.63;2.57;;;;;;;;;;5052813;28;20459;-67
2022/09/17 10:11:39;;;;;;;65.90;3.70;;;;;;;;;;5052906;28;20459;-65
2022/09/17 10:14:22;;;;;;;59.13;2.60;;;;;;;;;;5053092;28;20461;-68
2022/09/17 10:16:49;;;;;;;58.10;2.60;;;;;;;;;;5053104;28;20446;-68
2022/09/17 10:19:23;;;;;;;57.67;2.40;;;;;;;;;;5052498;28;20545;-69
2022/09/17 10:21:51;;;;;;;57.93;2.50;;;;;;;;;;5054170;28;20445;-65
2022/09/17 10:24:22;;;;;;;58.17;2.80;;;;;;;;;;5072869;28;20477;-66
2022/09/17 10:26:50;;;;;;;60.30;2.90;;;;;;;;;;5072536;28;20492;-65
2022/09/17 10:29:19;;;;;;;57.73;2.40;;;;;;;;;;5072173;28;20969;-66
2022/09/17 10:31:47;;;;;;;57.87;2.50;;;;;;;;;;5072384;28;20459;-66
2022/09/17 10:34:19;;;;;;;58.30;3.00;;;;;;;;;;5072319;28;20531;-66
2022/09/17 10:36:47;;;;;;;58.17;2.67;;;;;;;;;;5072660;28;20442;-66
2022/09/17 10:39:19;;;;;;;58.20;2.60;;;;;;;;;;5072193;28;20446;-65
2022/09/17 10:41:55;;;;;;;57.77;2.80;;;;;;;;;;5072170;28;20447;-65
2022/09/17 10:44:23;;;;;;;58.07;2.63;;;;;;;;;;5072271;28;20467;-65
2022/09/17 10:46:50;;;;;;;57.90;2.77;;;;;;;;;;5072036;28;20532;-65
2022/09/17 10:49:22;;;;;;;58.37;3.00;;;;;;;;;;5072185;28;20453;-65
2022/09/17 10:51:49;;;;;;;59.10;3.20;;;;;;;;;;5072248;28;20446;-66
2022/09/17 10:54:27;;;;;;;59.07;2.50;;;;;;;;;;5072201;28;20467;-66
2022/09/17 10:56:57;;;;;;;57.93;2.20;;;;;;;;;;5072453;28;20474;-66
2022/09/17 10:59:40;;;;;;;58.07;2.30;;;;;;;;;;5072004;28;20509;-66
2022/09/17 11:02:14;;;;;;;57.47;2.20;;;;;;;;;;5072113;28;20470;-66
2022/09/17 11:04:45;;;;;;;58.00;2.97;;;;;;;;;;5072081;28;20462;-66
2022/09/17 11:07:21;;;;;;;57.33;2.40;;;;;;;;;;5071716;28;20474;-66
2022/09/17 11:09:53;;;;;;;58.87;2.37;;;;;;;;;;5068377;28;20457;-66
2022/09/17 11:12:29;;;;;;;57.80;2.30;;;;;;;;;;5071441;28;20463;-65
2022/09/17 11:15:01;;;;;;;57.37;2.40;;;;;;;;;;5071962;28;20467;-66
2022/09/17 11:17:35;;;;;;;56.97;2.10;;;;;;;;;;5071873;28;20447;-66
2022/09/17 11:20:04;;;;;;;59.27;2.30;;;;;;;;;;5071595;28;20954;-66
2022/09/17 11:22:37;;;;;;;57.70;2.13;;;;;;;;;;5071589;28;20969;-66
2022/09/17 11:25:18;;;;;;;58.00;2.40;;;;;;;;;;5071821;28;20545;-66
2022/09/17 11:28:04;;;;;;;57.47;2.10;;;;;;;;;;5071426;28;20850;-68
2022/09/17 11:30:34;;;;;;;57.77;2.23;;;;;;;;;;5071199;28;20443;-66
2022/09/17 11:33:12;;;;;;;57.43;2.23;;;;;;;;;;5071152;28;20454;-66
2022/09/17 11:35:41;;;;;;;57.47;2.20;;;;;;;;;;5071392;28;20506;-66
2022/09/17 11:38:11;;;;;;;57.77;2.00;;;;;;;;;;5071546;28;20455;-67
2022/09/17 11:40:40;;;;;;;57.17;2.40;;;;;;;;;;5071428;28;20447;-65
2022/09/17 11:43:13;;;;;;;59.63;2.77;;;;;;;;;;5071449;28;20448;-65
2022/09/17 11:45:45;;;;;;;57.87;2.40;;;;;;;;;;5071690;28;20451;-65
2022/09/17 11:48:14;;;;;;;59.23;2.60;;;;;;;;;;5071332;28;20971;-66
2022/09/17 11:50:43;;;;;;;57.93;2.33;;;;;;;;;;5071218;28;20444;-65
2022/09/17 11:53:15;;;;;;;58.77;3.03;;;;;;;;;;5071573;28;20455;-65
2022/09/17 11:55:46;;;;;;;60.07;2.80;;;;;;;;;;5071781;28;20494;-66
2022/09/17 11:58:16;;;;;;;58.13;2.57;;;;;;;;;;5071672;28;20450;-66
2022/09/17 12:00:45;;;;;;;60.60;3.13;;;;;;;;;;5071072;28;21021;-67
2022/09/17 12:03:17;;;;;;;59.20;2.83;;;;;;;;;;5071014;28;20554;-67
2022/09/17 12:05:48;;;;;;;57.83;2.60;;;;;;;;;;5071589;28;20454;-66
2022/09/17 12:08:18;;;;;;;57.80;2.37;;;;;;;;;;5071316;28;20450;-66
2022/09/17 12:10:48;;;;;;;58.10;2.50;;;;;;;;;;5071377;28;20451;-66
2022/09/17 12:13:24;;;;;;;58.30;2.73;;;;;;;;;;5071375;28;20456;-66
2022/09/17 12:15:53;;;;;;;58.90;2.57;;;;;;;;;;5071394;28;20456;-66
2022/09/17 12:18:23;;;;;;;58.17;2.60;;;;;;;;;;5068148;28;21020;-66
2022/09/17 12:20:53;;;;;;;58.10;2.70;;;;;;;;;;5071073;28;20454;-66
2022/09/17 12:23:24;;;;;;;58.10;2.50;;;;;;;;;;5070910;28;20454;-66
2022/09/17 12:25:57;;;;;;;58.10;2.60;;;;;;;;;;5074237;28;20936;-66
2022/09/17 12:28:29;;;;;;;59.97;2.90;;;;;;;;;;5074589;28;20451;-66
2022/09/17 12:31:01;;;;;;;57.90;2.30;;;;;;;;;;5074957;28;20451;-66
2022/09/17 12:33:32;;;;;;;57.67;2.37;;;;;;;;;;5074827;28;20486;-66
2022/09/17 12:36:13;;;;;;;58.37;3.10;;;;;;;;;;5075246;28;20463;-66
2022/09/17 12:39:00;;;;;;;66.53;3.20;;;;;;;;;;5074214;28;20458;-66
2022/09/17 12:41:31;;;;;;;57.80;2.40;;;;;;;;;;5074946;28;20449;-66
2022/09/17 12:44:14;;;;;;;58.10;2.50;;;;;;;;;;5074440;28;20465;-66
2022/09/17 12:46:48;;;;;;;58.20;2.47;;;;;;;;;;5074357;28;20489;-66
2022/09/17 12:49:21;;;;;;;57.67;2.00;;;;;;;;;;5072487;28;20447;-66
2022/09/17 12:51:54;;;;;;;57.60;2.40;;;;;;;;;;5074309;28;20457;-66
2022/09/17 12:54:30;;;;;;;58.50;2.83;;;;;;;;;;5074503;28;20832;-66
2022/09/17 12:57:02;;;;;;;58.30;2.50;;;;;;;;;;5074532;28;20443;-66
2022/09/17 12:59:33;;;;;;;57.70;2.50;;;;;;;;;;5074247;28;20935;-66
2022/09/17 13:02:02;;;;;;;58.63;2.43;;;;;;;;;;5074318;28;20443;-66
2022/09/17 13:04:45;;;;;;;57.97;2.20;;;;;;;;;;5073956;28;20524;-66
2022/09/17 13:07:17;;;;;;;58.17;2.50;;;;;;;;;;5074217;28;20482;-66
2022/09/17 13:09:59;;;;;;;58.40;2.80;;;;;;;;;;5073799;28;20454;-66
2022/09/17 13:12:28;;;;;;;57.90;2.37;;;;;;;;;;5061385;28;21081;-66
2022/09/17 13:15:16;;;;;;;59.03;2.70;;;;;;;;;;5074148;28;20459;-66
2022/09/17 13:17:46;;;;;;;59.10;2.50;;;;;;;;;;5064938;28;20879;-66
2022/09/17 13:20:17;;;;;;;59.00;2.60;;;;;;;;;;5073575;28;20453;-66
2022/09/17 13:22:45;;;;;;;57.93;2.57;;;;;;;;;;5070972;28;20455;-66
2022/09/17 13:25:13;;;;;;;57.57;2.60;;;;;;;;;;5073930;28;20463;-66
2022/09/17 13:27:41;;;;;;;58.70;2.27;;;;;;;;;;5073921;28;20487;-66
2022/09/17 13:30:10;;;;;;;57.60;2.20;;;;;;;;;;5073829;28;20508;-66
2022/09/17 13:32:45;;;;;;;57.87;2.30;;;;;;;;;;5073606;28;20459;-66
2022/09/17 13:35:30;;;;;;;57.90;2.67;;;;;;;;;;5073050;28;20475;-66
2022/09/17 13:37:59;;;;;;;57.47;2.40;;;;;;;;;;5073800;28;20845;-66
2022/09/17 13:40:27;;;;;;;57.67;2.27;;;;;;;;;;5073379;28;20459;-66
2022/09/17 13:42:55;;;;;;;57.70;2.23;;;;;;;;;;5073409;28;20466;-66
2022/09/17 13:45:23;;;;;;;57.57;2.20;;;;;;;;;;5073305;28;20494;-66
2022/09/17 13:47:53;;;;;;;64.73;3.53;;;;;;;;;;5073386;28;20487;-66
2022/09/17 13:50:26;;;;;;;58.10;2.40;;;;;;;;;;5073396;28;20447;-66
2022/09/17 13:52:54;;;;;;;57.57;2.10;;;;;;;;;;5071370;28;20455;-66
2022/09/17 13:55:33;;;;;;;57.77;2.20;;;;;;;;;;5073222;28;20467;-66
2022/09/17 13:58:00;;;;;;;57.77;2.27;;;;;;;;;;5073060;28;20783;-66
2022/09/17 14:00:46;;;;;;;57.80;2.30;;;;;;;;;;5072847;28;20928;-66
2022/09/17 14:03:33;;;;;;;57.60;2.20;;;;;;;;;;5073509;28;20454;-66
2022/09/17 14:06:22;;;;;;;57.80;2.10;;;;;;;;;;5073088;28;20896;-66
2022/09/17 14:08:53;;;;;;;57.37;2.50;;;;;;;;;;5072765;28;20828;-66
2022/09/17 14:11:35;;;;;;;57.80;2.40;;;;;;;;;;5073010;28;20451;-66
2022/09/17 14:14:34;;;;;;;57.97;2.43;;;;;;;;;;5072928;28;20826;-66
2022/09/17 14:17:02;;;;;;;57.57;2.40;;;;;;;;;;5073093;28;20443;-66
2022/09/17 14:19:35;;;;;;;60.37;2.40;;;;;;;;;;5072816;28;20516;-66
2022/09/17 14:22:13;;;;;;;57.77;2.27;;;;;;;;;;5072905;28;20443;-66
2022/09/17 14:24:47;;;;;;;57.87;2.40;;;;;;;;;;5070267;28;20509;-66
2022/09/17 14:27:16;;;;;;;63.40;2.70;;;;;;;;;;5072407;28;20485;-66
2022/09/17 14:29:50;;;;;;;57.43;2.30;;;;;;;;;;5072448;28;20447;-66
2022/09/17 14:32:19;;;;;;;58.80;2.70;;;;;;;;;;5072464;28;20454;-66
2022/09/17 14:34:47;;;;;;;57.57;2.40;;;;;;;;;;5072184;28;21064;-66
2022/09/17 14:37:16;;;;;;;57.87;2.60;;;;;;;;;;5072657;28;20444;-66
2022/09/17 14:39:43;;;;;;;58.10;2.83;;;;;;;;;;5072012;28;20451;-66
2022/09/17 14:42:15;;;;;;;58.00;2.40;;;;;;;;;;5072593;28;20456;-66
2022/09/17 14:44:49;;;;;;;57.97;2.50;;;;;;;;;;5072228;28;20546;-66
2022/09/17 14:47:18;;;;;;;58.17;2.40;;;;;;;;;;5071385;28;20480;-66